createdAt,value
2022-08-02T00:00:55.367Z,2.20
2022-08-02T00:01:53.689Z,2.40
2022-08-02T00:02:53.593Z,2.40
2022-08-02T00:03:53.563Z,2.30
2022-08-02T00:04:53.565Z,2.30
2022-08-02T00:05:54.025Z,2.20
2022-08-02T00:06:53.526Z,2.00
2022-08-02T00:07:53.522Z,2.50
2022-08-02T00:08:53.492Z,2.50
2022-08-02T00:09:53.492Z,2.40
2022-08-02T00:10:53.462Z,2.00
2022-08-02T00:11:53.453Z,2.10
2022-08-02T00:12:53.442Z,2.00
2022-08-02T00:13:53.441Z,2.10
2022-08-02T00:14:53.421Z,2.40
2022-08-02T00:15:53.400Z,2.20
2022-08-02T00:16:53.383Z,2.30
2022-08-02T00:17:53.372Z,2.20
2022-08-02T00:18:53.822Z,2.50
2022-08-02T00:19:53.343Z,2.10
2022-08-02T00:20:53.341Z,2.10
2022-08-02T00:21:53.310Z,2.20
2022-08-02T00:22:53.309Z,2.60
2022-08-02T00:24:29.570Z,2.30
2022-08-02T00:24:54.291Z,2.20
2022-08-02T00:25:54.908Z,2.20
2022-08-02T00:26:53.254Z,2.20
2022-08-02T00:27:53.239Z,2.30
2022-08-02T00:28:53.230Z,2.20
2022-08-02T00:29:53.621Z,2.30
2022-08-02T00:30:53.231Z,2.50
2022-08-02T00:31:53.188Z,2.30
2022-08-02T00:32:53.180Z,2.30
2022-08-02T00:34:28.045Z,2.40
2022-08-02T00:34:54.150Z,2.10
2022-08-02T00:35:53.130Z,2.30
2022-08-02T00:36:53.141Z,2.60
2022-08-02T00:37:53.109Z,2.40
2022-08-02T00:38:53.090Z,2.00
2022-08-02T00:39:53.079Z,2.50
2022-08-02T00:40:57.810Z,2.40
2022-08-02T00:41:54.060Z,2.30
2022-08-02T00:42:53.040Z,2.70
2022-08-02T00:43:53.029Z,2.50
2022-08-02T00:44:53.023Z,2.40
2022-08-02T00:46:01.913Z,2.40
2022-08-02T00:46:54.007Z,2.10
2022-08-02T00:47:52.968Z,2.30
2022-08-02T00:48:53.000Z,2.70
2022-08-02T00:49:52.947Z,2.40
2022-08-02T00:50:52.939Z,2.80
2022-08-02T00:51:52.997Z,2.60
2022-08-02T00:52:52.918Z,2.70
2022-08-02T00:53:52.896Z,2.70
2022-08-02T00:54:52.889Z,2.70
2022-08-02T00:55:52.875Z,2.60
2022-08-02T00:56:52.876Z,2.10
2022-08-02T00:57:52.835Z,2.90
2022-08-02T00:58:52.826Z,2.60
2022-08-02T00:59:52.806Z,2.70
2022-08-02T01:00:52.807Z,2.60
2022-08-02T01:01:57.104Z,2.20
2022-08-02T01:02:53.804Z,2.70
2022-08-02T01:03:52.765Z,2.60
2022-08-02T01:04:52.755Z,2.60
2022-08-02T01:06:10.239Z,2.30
2022-08-02T01:06:53.744Z,2.60
2022-08-02T01:07:52.706Z,2.60
2022-08-02T01:08:52.714Z,2.70
2022-08-02T01:09:52.685Z,2.40
2022-08-02T01:10:52.674Z,2.40
2022-08-02T01:11:52.675Z,2.30
2022-08-02T01:12:52.644Z,2.90
2022-08-02T01:13:52.644Z,2.60
2022-08-02T01:14:52.624Z,2.50
2022-08-02T01:15:52.615Z,2.70
2022-08-02T01:16:52.593Z,2.50
2022-08-02T01:17:52.587Z,2.10
2022-08-02T01:18:52.594Z,2.70
2022-08-02T01:19:52.568Z,2.40
2022-08-02T01:20:52.546Z,2.60
2022-08-02T01:21:52.543Z,2.30
2022-08-02T01:23:07.863Z,2.80
2022-08-02T01:23:53.513Z,2.90
2022-08-02T01:24:52.495Z,3.10
2022-08-02T01:25:52.482Z,2.70
2022-08-02T01:26:52.463Z,2.90
2022-08-02T01:27:52.462Z,2.20
2022-08-02T01:28:52.443Z,2.60
2022-08-02T01:29:52.462Z,2.60
2022-08-02T01:30:52.422Z,2.70
2022-08-02T01:31:52.416Z,2.70
2022-08-02T01:32:52.392Z,2.50
2022-08-02T01:33:52.384Z,2.90
2022-08-02T01:34:52.361Z,2.90
2022-08-02T01:35:52.370Z,2.70
2022-08-02T01:36:52.341Z,2.60
2022-08-02T01:37:52.322Z,2.70
2022-08-02T01:38:52.310Z,2.40
2022-08-02T01:39:52.311Z,2.90
2022-08-02T01:40:52.302Z,2.70
2022-08-02T01:41:53.340Z,2.70
2022-08-02T01:42:53.261Z,2.10
2022-08-02T01:43:52.268Z,2.60
2022-08-02T01:44:52.230Z,3.00
2022-08-02T01:45:52.241Z,2.80
2022-08-02T01:46:52.209Z,2.50
2022-08-02T01:47:52.199Z,2.50
2022-08-02T01:48:52.226Z,3.60
2022-08-02T01:49:52.182Z,2.50
2022-08-02T01:50:52.169Z,2.90
2022-08-02T01:51:52.149Z,3.00
2022-08-02T01:52:53.536Z,2.90
2022-08-02T01:53:52.118Z,2.80
2022-08-02T01:54:52.109Z,2.90
2022-08-02T01:55:57.429Z,2.90
2022-08-02T01:56:53.089Z,2.60
2022-08-02T01:57:52.087Z,3.00
2022-08-02T01:58:52.058Z,3.00
2022-08-02T01:59:52.050Z,3.20
2022-08-02T02:00:52.102Z,3.70
2022-08-02T02:01:52.102Z,2.80
2022-08-02T02:02:51.997Z,3.20
2022-08-02T02:03:51.987Z,2.20
2022-08-02T02:04:51.977Z,2.50
2022-08-02T02:05:51.968Z,2.60
2022-08-02T02:06:51.966Z,3.00
2022-08-02T02:07:51.948Z,2.60
2022-08-02T02:08:51.926Z,2.40
2022-08-02T02:09:51.917Z,3.00
2022-08-02T02:10:51.899Z,2.60
2022-08-02T02:12:11.039Z,2.70
2022-08-02T02:12:52.885Z,2.60
2022-08-02T02:13:51.875Z,2.80
2022-08-02T02:14:52.320Z,2.80
2022-08-02T02:15:51.838Z,2.80
2022-08-02T02:16:51.838Z,2.80
2022-08-02T02:18:12.839Z,3.00
2022-08-02T02:18:52.797Z,2.80
2022-08-02T02:19:51.786Z,2.80
2022-08-02T02:20:51.774Z,2.70
2022-08-02T02:21:51.785Z,2.90
2022-08-02T02:22:51.747Z,2.80
2022-08-02T02:23:51.746Z,2.60
2022-08-02T02:24:51.724Z,2.40
2022-08-02T02:25:51.715Z,2.70
2022-08-02T02:26:52.254Z,2.80
2022-08-02T02:27:51.693Z,2.50
2022-08-02T02:28:51.675Z,2.80
2022-08-02T02:29:51.655Z,2.90
2022-08-02T02:30:51.643Z,2.60
2022-08-02T02:31:51.664Z,2.70
2022-08-02T02:32:51.624Z,3.00
2022-08-02T02:33:51.603Z,2.60
2022-08-02T02:34:51.604Z,2.70
2022-08-02T02:35:51.581Z,2.70
2022-08-02T02:36:51.573Z,2.80
2022-08-02T02:37:51.562Z,2.60
2022-08-02T02:38:51.547Z,2.80
2022-08-02T02:39:51.533Z,2.70
2022-08-02T02:40:51.523Z,2.90
2022-08-02T02:41:51.504Z,2.90
2022-08-02T02:42:51.503Z,3.60
2022-08-02T02:43:51.474Z,3.10
2022-08-02T02:44:51.462Z,3.00
2022-08-02T02:45:51.457Z,3.00
2022-08-02T02:46:51.445Z,2.90
2022-08-02T02:47:51.442Z,2.90
2022-08-02T02:48:51.463Z,2.50
2022-08-02T02:49:51.401Z,2.80
2022-08-02T02:50:51.383Z,3.10
2022-08-02T02:51:51.386Z,2.60
2022-08-02T02:52:51.371Z,2.60
2022-08-02T02:54:32.979Z,3.20
2022-08-02T02:54:52.341Z,2.60
2022-08-02T02:56:01.429Z,2.70
2022-08-02T02:56:52.314Z,2.30
2022-08-02T02:57:51.315Z,2.50
2022-08-02T02:58:51.290Z,2.70
2022-08-02T02:59:51.289Z,2.50
2022-08-02T03:00:51.296Z,2.70
2022-08-02T03:01:56.899Z,2.90
2022-08-02T03:02:52.240Z,3.20
2022-08-02T03:03:51.222Z,2.90
2022-08-02T03:04:57.137Z,2.80
2022-08-02T03:05:52.190Z,3.00
2022-08-02T03:06:51.178Z,2.80
2022-08-02T03:07:51.190Z,2.30
2022-08-02T03:08:51.169Z,2.30
2022-08-02T03:09:54.383Z,2.50
2022-08-02T03:10:51.137Z,2.70
2022-08-02T03:11:51.133Z,2.50
2022-08-02T03:12:51.130Z,2.50
2022-08-02T03:13:51.098Z,2.90
2022-08-02T03:14:51.079Z,2.80
2022-08-02T03:15:51.069Z,2.80
2022-08-02T03:16:51.058Z,3.00
2022-08-02T03:17:51.039Z,2.60
2022-08-02T03:18:51.048Z,2.50
2022-08-02T03:19:51.019Z,2.50
2022-08-02T03:20:51.005Z,2.40
2022-08-02T03:22:07.581Z,2.50
2022-08-02T03:22:51.968Z,2.70
2022-08-02T03:23:50.970Z,2.80
2022-08-02T03:24:50.977Z,2.80
2022-08-02T03:25:50.947Z,2.90
2022-08-02T03:26:50.925Z,2.70
2022-08-02T03:27:50.907Z,2.60
2022-08-02T03:28:50.900Z,2.60
2022-08-02T03:29:50.918Z,3.20
2022-08-02T03:30:50.877Z,3.30
2022-08-02T03:31:50.866Z,2.80
2022-08-02T03:32:50.849Z,3.00
2022-08-02T03:33:50.839Z,2.80
2022-08-02T03:34:50.834Z,2.90
2022-08-02T03:35:50.837Z,2.80
2022-08-02T03:36:50.816Z,2.90
2022-08-02T03:37:50.790Z,2.70
2022-08-02T03:38:50.777Z,2.60
2022-08-02T03:39:53.086Z,2.60
2022-08-02T03:40:50.756Z,2.60
2022-08-02T03:41:50.737Z,2.90
2022-08-02T03:42:50.715Z,3.00
2022-08-02T03:43:50.719Z,3.10
2022-08-02T03:44:50.686Z,2.90
2022-08-02T03:45:50.687Z,3.20
2022-08-02T03:46:50.679Z,2.90
2022-08-02T03:47:50.666Z,3.00
2022-08-02T03:48:50.694Z,2.60
2022-08-02T03:49:50.634Z,2.40
2022-08-02T03:50:50.675Z,2.30
2022-08-02T03:51:50.604Z,2.80
2022-08-02T03:52:50.584Z,2.70
2022-08-02T03:53:50.583Z,2.50
2022-08-02T03:54:50.567Z,3.20
2022-08-02T03:55:50.592Z,2.90
2022-08-02T03:56:50.549Z,3.80
2022-08-02T03:57:50.523Z,2.90
2022-08-02T03:58:50.515Z,2.90
2022-08-02T03:59:50.504Z,2.80
2022-08-02T04:00:50.512Z,2.50
2022-08-02T04:01:50.492Z,3.00
2022-08-02T04:02:50.465Z,2.70
2022-08-02T04:03:50.451Z,2.90
2022-08-02T04:04:50.448Z,3.20
2022-08-02T04:06:01.095Z,2.70
2022-08-02T04:06:51.412Z,3.00
2022-08-02T04:08:32.681Z,3.20
2022-08-02T04:08:51.382Z,3.10
2022-08-02T04:09:50.379Z,2.90
2022-08-02T04:10:50.373Z,3.20
2022-08-02T04:11:50.342Z,2.70
2022-08-02T04:12:50.332Z,2.80
2022-08-02T04:13:50.336Z,3.50
2022-08-02T04:14:50.311Z,3.50
2022-08-02T04:15:50.382Z,3.70
2022-08-02T04:16:50.289Z,4.00
2022-08-02T04:17:50.280Z,3.80
2022-08-02T04:18:50.269Z,3.20
2022-08-02T04:19:50.253Z,3.70
2022-08-02T04:20:50.241Z,3.40
2022-08-02T04:21:52.056Z,2.90
2022-08-02T04:22:50.229Z,3.40
2022-08-02T04:23:50.199Z,3.80
2022-08-02T04:24:50.187Z,3.50
2022-08-02T04:25:51.420Z,3.40
2022-08-02T04:26:50.169Z,3.20
2022-08-02T04:28:16.749Z,3.80
2022-08-02T04:28:51.129Z,3.30
2022-08-02T04:29:50.119Z,3.50
2022-08-02T04:30:50.120Z,2.90
2022-08-02T04:31:50.096Z,3.20
2022-08-02T04:32:50.080Z,3.40
2022-08-02T04:33:50.068Z,3.50
2022-08-02T04:35:17.612Z,3.60
2022-08-02T04:35:51.059Z,3.30
2022-08-02T04:36:50.035Z,3.60
2022-08-02T04:38:08.377Z,3.40
2022-08-02T04:38:51.008Z,3.10
2022-08-02T04:39:49.992Z,3.70
2022-08-02T04:40:49.978Z,3.10
2022-08-02T04:41:53.353Z,3.80
2022-08-02T04:42:50.947Z,3.70
2022-08-02T04:43:49.938Z,3.60
2022-08-02T04:44:49.928Z,3.40
2022-08-02T04:45:49.947Z,3.80
2022-08-02T04:46:49.906Z,3.90
2022-08-02T04:48:03.495Z,4.40
2022-08-02T04:48:50.904Z,3.80
2022-08-02T04:49:49.866Z,4.40
2022-08-02T04:50:49.872Z,4.60
2022-08-02T04:51:49.836Z,4.50
2022-08-02T04:52:49.827Z,4.10
2022-08-02T04:53:49.826Z,4.10
2022-08-02T04:54:49.796Z,3.60
2022-08-02T04:55:49.800Z,3.90
2022-08-02T04:56:49.786Z,4.00
2022-08-02T04:57:50.694Z,4.00
2022-08-02T04:58:49.746Z,4.10
2022-08-02T04:59:54.405Z,3.80
2022-08-02T05:00:50.860Z,3.60
2022-08-02T05:01:49.704Z,4.00
2022-08-02T05:02:49.704Z,3.60
2022-08-02T05:03:49.685Z,3.70
2022-08-02T05:04:49.666Z,3.90
2022-08-02T05:05:49.685Z,3.70
2022-08-02T05:06:49.644Z,3.90
2022-08-02T05:07:49.641Z,4.00
2022-08-02T05:08:53.039Z,3.90
2022-08-02T05:09:49.614Z,3.90
2022-08-02T05:10:49.595Z,4.20
2022-08-02T05:11:54.773Z,4.40
2022-08-02T05:12:50.575Z,4.10
2022-08-02T05:13:58.588Z,4.10
2022-08-02T05:14:50.543Z,3.60
2022-08-02T05:15:49.552Z,4.40
2022-08-02T05:16:49.523Z,4.10
2022-08-02T05:17:49.522Z,4.50
2022-08-02T05:18:49.491Z,4.10
2022-08-02T05:19:49.480Z,4.20
2022-08-02T05:20:49.494Z,4.20
2022-08-02T05:21:49.465Z,4.10
2022-08-02T05:22:49.441Z,4.40
2022-08-02T05:23:49.445Z,4.40
2022-08-02T05:24:49.411Z,4.10
2022-08-02T05:25:49.411Z,4.50
2022-08-02T05:26:49.391Z,3.90
2022-08-02T05:27:49.381Z,4.20
2022-08-02T05:28:49.390Z,3.90
2022-08-02T05:29:53.024Z,4.30
2022-08-02T05:30:49.345Z,4.40
2022-08-02T05:31:49.331Z,4.00
2022-08-02T05:32:49.320Z,4.40
2022-08-02T05:33:49.310Z,4.50
2022-08-02T05:34:49.290Z,4.20
2022-08-02T05:35:49.282Z,4.20
2022-08-02T05:36:49.283Z,4.10
2022-08-02T05:37:49.252Z,4.50
2022-08-02T05:38:49.943Z,4.30
2022-08-02T05:39:55.536Z,4.00
2022-08-02T05:40:54.634Z,4.20
2022-08-02T05:41:50.200Z,4.30
2022-08-02T05:42:49.190Z,4.30
2022-08-02T05:43:49.182Z,4.40
2022-08-02T05:44:49.170Z,4.00
2022-08-02T05:45:49.150Z,4.70
2022-08-02T05:46:49.150Z,4.10
2022-08-02T05:47:49.129Z,4.20
2022-08-02T05:48:49.117Z,4.30
2022-08-02T05:49:49.108Z,4.40
2022-08-02T05:50:49.226Z,4.20
2022-08-02T05:51:49.078Z,4.10
2022-08-02T05:52:49.060Z,4.20
2022-08-02T05:53:49.059Z,3.80
2022-08-02T05:54:49.029Z,3.70
2022-08-02T05:55:49.018Z,4.20
2022-08-02T05:56:48.998Z,3.70
2022-08-02T05:57:49.004Z,3.70
2022-08-02T05:58:48.988Z,3.40
2022-08-02T05:59:48.986Z,3.70
2022-08-02T06:00:48.957Z,3.40
2022-08-02T06:01:49.004Z,3.90
2022-08-02T06:02:48.935Z,3.70
2022-08-02T06:03:48.926Z,3.70
2022-08-02T06:04:48.897Z,3.80
2022-08-02T06:05:48.916Z,3.80
2022-08-02T06:06:48.875Z,3.70
2022-08-02T06:07:48.856Z,3.80
2022-08-02T06:08:48.856Z,3.70
2022-08-02T06:09:48.836Z,3.50
2022-08-02T06:10:48.827Z,3.60
2022-08-02T06:12:01.732Z,3.60
2022-08-02T06:12:49.795Z,3.40
2022-08-02T06:13:48.804Z,3.50
2022-08-02T06:14:54.080Z,3.60
2022-08-02T06:15:53.348Z,3.40
2022-08-02T06:16:48.745Z,4.00
2022-08-02T06:17:48.737Z,3.80
2022-08-02T06:18:48.725Z,3.60
2022-08-02T06:19:51.947Z,3.60
2022-08-02T06:20:48.685Z,3.40
2022-08-02T06:22:32.182Z,3.60
2022-08-02T06:22:49.893Z,3.70
2022-08-02T06:23:57.492Z,3.50
2022-08-02T06:24:49.634Z,3.70
2022-08-02T06:25:50.753Z,3.80
2022-08-02T06:26:48.607Z,3.60
2022-08-02T06:27:48.594Z,3.80
2022-08-02T06:28:48.594Z,3.50
2022-08-02T06:29:48.573Z,4.20
2022-08-02T06:30:48.545Z,3.50
2022-08-02T06:31:48.561Z,3.30
2022-08-02T06:32:48.524Z,3.20
2022-08-02T06:33:48.522Z,3.40
2022-08-02T06:34:48.503Z,3.50
2022-08-02T06:35:48.484Z,3.40
2022-08-02T06:36:48.474Z,3.20
2022-08-02T06:37:48.461Z,3.00
2022-08-02T06:38:49.807Z,3.40
2022-08-02T06:39:48.455Z,3.40
2022-08-02T06:40:48.422Z,2.90
2022-08-02T06:41:48.413Z,3.20
2022-08-02T06:42:48.401Z,2.70
2022-08-02T06:43:48.393Z,3.10
2022-08-02T06:44:51.920Z,3.40
2022-08-02T06:45:49.359Z,3.20
2022-08-02T06:47:10.914Z,3.20
2022-08-02T06:47:49.331Z,3.10
2022-08-02T06:48:48.326Z,3.30
2022-08-02T06:49:51.574Z,3.00
2022-08-02T06:50:49.290Z,2.90
2022-08-02T06:51:48.280Z,3.00
2022-08-02T06:52:48.260Z,2.90
2022-08-02T06:53:48.261Z,3.00
2022-08-02T06:54:48.240Z,2.60
2022-08-02T06:55:48.220Z,2.80
2022-08-02T06:56:48.211Z,2.70
2022-08-02T06:57:48.200Z,2.80
2022-08-02T06:58:48.194Z,2.90
2022-08-02T06:59:48.179Z,2.60
2022-08-02T07:00:48.151Z,2.70
2022-08-02T07:01:48.170Z,2.60
2022-08-02T07:02:48.129Z,2.70
2022-08-02T07:03:48.131Z,2.60
2022-08-02T07:04:48.100Z,2.40
2022-08-02T07:05:48.091Z,2.50
2022-08-02T07:06:48.080Z,2.80
2022-08-02T07:07:48.070Z,2.60
2022-08-02T07:09:11.140Z,2.80
2022-08-02T07:10:00.441Z,2.60
2022-08-02T07:10:49.030Z,2.30
2022-08-02T07:11:48.010Z,2.40
2022-08-02T07:12:48.009Z,2.30
2022-08-02T07:13:48.012Z,2.50
2022-08-02T07:14:47.969Z,2.20
2022-08-02T07:15:49.441Z,2.30
2022-08-02T07:16:47.949Z,2.30
2022-08-02T07:17:47.949Z,2.10
2022-08-02T07:18:47.928Z,2.30
2022-08-02T07:19:47.919Z,1.90
2022-08-02T07:20:47.898Z,1.90
2022-08-02T07:21:59.378Z,1.90
2022-08-02T07:22:48.872Z,1.90
2022-08-02T07:23:47.879Z,2.20
2022-08-02T07:24:47.846Z,2.00
2022-08-02T07:26:02.818Z,2.10
2022-08-02T07:27:09.946Z,1.90
2022-08-02T07:27:48.815Z,1.70
2022-08-02T07:28:47.797Z,1.90
2022-08-02T07:29:47.778Z,2.10
2022-08-02T07:30:47.769Z,2.10
2022-08-02T07:31:47.748Z,2.10
2022-08-02T07:32:47.747Z,1.90
2022-08-02T07:33:47.737Z,2.00
2022-08-02T07:34:52.643Z,1.70
2022-08-02T07:35:48.708Z,2.10
2022-08-02T07:36:47.687Z,2.10
2022-08-02T07:37:55.113Z,1.80
2022-08-02T07:38:48.677Z,1.80
2022-08-02T07:39:47.648Z,2.00
2022-08-02T07:40:47.637Z,2.00
2022-08-02T07:41:47.626Z,1.90
2022-08-02T07:42:47.598Z,1.90
2022-08-02T07:43:47.599Z,2.20
2022-08-02T07:44:49.314Z,2.00
2022-08-02T07:45:55.973Z,1.80
2022-08-02T07:46:48.547Z,1.90
2022-08-02T07:47:47.554Z,1.80
2022-08-02T07:48:47.540Z,1.90
2022-08-02T07:49:47.525Z,2.10
2022-08-02T07:50:47.527Z,1.70
2022-08-02T07:51:47.494Z,1.60
2022-08-02T07:52:47.501Z,1.90
2022-08-02T07:53:50.854Z,1.60
2022-08-02T07:54:48.448Z,1.60
2022-08-02T07:55:47.437Z,1.70
2022-08-02T07:56:47.450Z,1.80
2022-08-02T07:57:48.428Z,1.90
2022-08-02T07:58:47.419Z,1.60
2022-08-02T07:59:47.393Z,1.70
2022-08-02T08:00:47.374Z,1.70
2022-08-02T08:01:47.407Z,1.70
2022-08-02T08:02:47.345Z,1.50
2022-08-02T08:03:47.356Z,1.60
2022-08-02T08:04:47.316Z,1.60
2022-08-02T08:05:47.314Z,1.60
2022-08-02T08:06:47.309Z,1.40
2022-08-02T08:07:47.286Z,1.50
2022-08-02T08:08:47.275Z,1.60
2022-08-02T08:09:47.257Z,1.40
2022-08-02T08:10:47.235Z,1.60
2022-08-02T08:11:47.235Z,1.70
2022-08-02T08:12:47.209Z,1.70
2022-08-02T08:13:47.214Z,1.50
2022-08-02T08:14:47.184Z,1.30
2022-08-02T08:15:51.942Z,1.30
2022-08-02T08:16:48.154Z,1.10
2022-08-02T08:17:47.156Z,1.50
2022-08-02T08:18:47.154Z,1.30
2022-08-02T08:19:51.173Z,1.40
2022-08-02T08:20:48.117Z,1.50
2022-08-02T08:21:47.101Z,1.60
2022-08-02T08:22:47.084Z,1.00
2022-08-02T08:23:47.076Z,1.30
2022-08-02T08:24:47.054Z,1.20
2022-08-02T08:25:47.044Z,1.30
2022-08-02T08:26:47.024Z,1.10
2022-08-02T08:27:47.014Z,1.10
2022-08-02T08:28:47.015Z,1.20
2022-08-02T08:29:47.009Z,1.20
2022-08-02T08:30:46.975Z,1.30
2022-08-02T08:31:46.966Z,1.20
2022-08-02T08:32:46.945Z,1.10
2022-08-02T08:33:46.955Z,1.10
2022-08-02T08:34:46.934Z,1.00
2022-08-02T08:35:46.904Z,1.10
2022-08-02T08:36:46.895Z,1.00
2022-08-02T08:37:46.899Z,1.10
2022-08-02T08:38:46.896Z,1.10
2022-08-02T08:39:58.065Z,0.80
2022-08-02T08:40:47.847Z,1.10
2022-08-02T08:41:46.834Z,1.00
2022-08-02T08:42:46.824Z,1.20
2022-08-02T08:43:51.419Z,1.20
2022-08-02T08:44:47.793Z,0.80
2022-08-02T08:45:56.152Z,0.90
2022-08-02T08:46:47.764Z,1.00
2022-08-02T08:47:46.767Z,0.90
2022-08-02T08:48:46.753Z,1.00
2022-08-02T08:49:52.803Z,1.00
2022-08-02T08:50:47.723Z,0.80
2022-08-02T08:51:46.703Z,0.90
2022-08-02T08:52:46.694Z,0.80
2022-08-02T08:53:46.705Z,1.20
2022-08-02T08:54:48.664Z,0.80
2022-08-02T08:55:46.653Z,0.90
2022-08-02T08:56:46.642Z,0.80
2022-08-02T08:57:46.635Z,1.00
2022-08-02T08:58:46.624Z,0.90
2022-08-02T08:59:46.604Z,0.90
2022-08-02T09:00:46.623Z,0.80
2022-08-02T09:01:49.943Z,0.90
2022-08-02T09:02:46.573Z,0.90
2022-08-02T09:03:46.566Z,1.20
2022-08-02T09:04:54.567Z,1.00
2022-08-02T09:05:47.523Z,1.00
2022-08-02T09:06:46.551Z,0.80
2022-08-02T09:07:46.503Z,1.00
2022-08-02T09:08:46.504Z,1.20
2022-08-02T09:09:46.474Z,1.00
2022-08-02T09:10:46.473Z,1.10
2022-08-02T09:11:46.481Z,1.20
2022-08-02T09:12:46.443Z,1.30
2022-08-02T09:13:46.446Z,1.00
2022-08-02T09:14:46.436Z,1.10
2022-08-02T09:15:46.404Z,1.10
2022-08-02T09:16:46.395Z,1.10
2022-08-02T09:17:46.397Z,1.30
2022-08-02T09:18:47.304Z,1.00
2022-08-02T09:19:46.598Z,1.10
2022-08-02T09:20:46.344Z,1.20
2022-08-02T09:21:46.322Z,1.20
2022-08-02T09:22:46.305Z,1.00
2022-08-02T09:23:46.316Z,1.30
2022-08-02T09:24:46.312Z,1.10
2022-08-02T09:25:59.567Z,0.90
2022-08-02T09:26:47.283Z,1.30
2022-08-02T09:27:46.244Z,1.20
2022-08-02T09:28:46.243Z,1.50
2022-08-02T09:30:11.514Z,1.10
2022-08-02T09:30:47.214Z,1.30
2022-08-02T09:31:49.502Z,1.10
2022-08-02T09:32:46.181Z,1.30
2022-08-02T09:33:46.176Z,1.20
2022-08-02T09:34:46.174Z,1.30
2022-08-02T09:36:05.837Z,1.30
2022-08-02T09:36:47.133Z,1.20
2022-08-02T09:37:48.694Z,1.30
2022-08-02T09:38:46.113Z,1.00
2022-08-02T09:39:47.613Z,1.20
2022-08-02T09:40:46.080Z,1.00
2022-08-02T09:41:46.073Z,1.10
2022-08-02T09:42:46.054Z,1.30
2022-08-02T09:43:57.973Z,1.20
2022-08-02T09:44:47.023Z,0.90
2022-08-02T09:45:46.015Z,1.10
2022-08-02T09:46:45.995Z,1.20
2022-08-02T09:47:45.993Z,1.10
2022-08-02T09:48:45.985Z,0.90
2022-08-02T09:49:47.021Z,1.10
2022-08-02T09:50:46.955Z,1.10
2022-08-02T09:51:45.937Z,1.20
2022-08-02T09:52:45.917Z,1.20
2022-08-02T09:53:45.913Z,1.10
2022-08-02T09:54:45.893Z,1.20
2022-08-02T09:55:45.883Z,1.20
2022-08-02T09:56:45.922Z,1.20
2022-08-02T09:57:51.220Z,1.20
2022-08-02T09:58:46.857Z,1.30
2022-08-02T09:59:45.842Z,1.20
2022-08-02T10:00:53.019Z,1.20
2022-08-02T10:01:50.640Z,1.10
2022-08-02T10:02:46.785Z,1.70
2022-08-02T10:03:45.792Z,1.50
2022-08-02T10:04:52.984Z,1.30
2022-08-02T10:05:55.620Z,1.40
2022-08-02T10:06:46.797Z,1.10
2022-08-02T10:07:45.801Z,1.40
2022-08-02T10:08:45.784Z,1.20
2022-08-02T10:09:46.501Z,1.20
2022-08-02T10:10:45.683Z,1.30
2022-08-02T10:11:45.683Z,1.80
2022-08-02T10:12:45.662Z,1.40
2022-08-02T10:13:45.663Z,1.30
2022-08-02T10:14:45.638Z,1.30
2022-08-02T10:15:50.599Z,1.60
2022-08-02T10:16:46.624Z,1.60
2022-08-02T10:17:45.593Z,1.20
2022-08-02T10:18:45.652Z,1.20
2022-08-02T10:20:02.467Z,1.60
2022-08-02T10:20:46.553Z,1.40
2022-08-02T10:21:46.943Z,1.40
2022-08-02T10:22:45.523Z,1.30
2022-08-02T10:23:45.524Z,1.10
2022-08-02T10:24:47.599Z,1.30
2022-08-02T10:25:45.514Z,1.50
2022-08-02T10:26:45.486Z,1.40
2022-08-02T10:28:04.192Z,1.40
2022-08-02T10:28:46.463Z,1.30
2022-08-02T10:29:55.262Z,1.40
2022-08-02T10:30:46.433Z,1.40
2022-08-02T10:31:45.412Z,1.30
2022-08-02T10:32:45.402Z,1.50
2022-08-02T10:33:49.885Z,1.50
2022-08-02T10:34:45.382Z,1.30
2022-08-02T10:35:46.370Z,1.60
2022-08-02T10:36:45.353Z,1.30
2022-08-02T10:37:45.343Z,1.20
2022-08-02T10:38:45.331Z,1.20
2022-08-02T10:39:49.102Z,1.20
2022-08-02T10:40:46.305Z,1.30
2022-08-02T10:41:45.291Z,1.40
2022-08-02T10:42:45.273Z,1.50
2022-08-02T10:43:45.281Z,1.30
2022-08-02T10:44:45.255Z,1.60
2022-08-02T10:45:49.079Z,1.80
2022-08-02T10:46:46.223Z,1.50
2022-08-02T10:47:45.224Z,1.40
2022-08-02T10:48:46.214Z,1.70
2022-08-02T10:49:45.211Z,1.70
2022-08-02T10:50:45.173Z,1.70
2022-08-02T10:51:45.183Z,1.40
2022-08-02T10:52:45.143Z,1.70
2022-08-02T10:53:45.143Z,1.50
2022-08-02T10:54:45.122Z,1.30
2022-08-02T10:55:45.112Z,1.50
2022-08-02T10:56:45.095Z,1.40
2022-08-02T10:57:47.066Z,1.70
2022-08-02T10:58:46.072Z,1.50
2022-08-02T10:59:45.060Z,1.90
2022-08-02T11:00:45.079Z,2.00
2022-08-02T11:01:45.069Z,1.60
2022-08-02T11:02:45.012Z,1.50
2022-08-02T11:03:45.013Z,1.70
2022-08-02T11:04:44.992Z,1.40
2022-08-02T11:05:44.983Z,1.20
2022-08-02T11:06:44.978Z,1.60
2022-08-02T11:07:47.530Z,1.80
2022-08-02T11:08:44.952Z,1.60
2022-08-02T11:09:44.940Z,1.60
2022-08-02T11:10:45.305Z,1.50
2022-08-02T11:11:54.195Z,1.30
2022-08-02T11:12:45.894Z,1.50
2022-08-02T11:13:44.894Z,1.80
2022-08-02T11:14:44.864Z,1.80
2022-08-02T11:15:44.853Z,1.80
2022-08-02T11:16:44.844Z,1.80
2022-08-02T11:17:44.843Z,1.80
2022-08-02T11:18:44.926Z,1.90
2022-08-02T11:19:44.813Z,2.00
2022-08-02T11:20:44.801Z,1.70
2022-08-02T11:21:47.879Z,2.10
2022-08-02T11:22:44.772Z,1.80
2022-08-02T11:23:46.101Z,1.60
2022-08-02T11:24:44.747Z,1.50
2022-08-02T11:26:03.111Z,1.70
2022-08-02T11:26:45.714Z,1.70
2022-08-02T11:27:44.723Z,2.00
2022-08-02T11:28:44.703Z,1.50
2022-08-02T11:29:45.422Z,1.80
2022-08-02T11:30:45.403Z,2.50
2022-08-02T11:31:44.671Z,1.60
2022-08-02T11:32:44.632Z,1.60
2022-08-02T11:33:45.342Z,1.90
2022-08-02T11:34:44.613Z,1.80
2022-08-02T11:35:45.343Z,2.00
2022-08-02T11:36:44.625Z,1.80
2022-08-02T11:37:44.582Z,1.70
2022-08-02T11:38:45.273Z,1.80
2022-08-02T11:39:44.564Z,1.90
2022-08-02T11:40:44.543Z,1.50
2022-08-02T11:41:47.409Z,1.50
2022-08-02T11:42:45.242Z,1.80
2022-08-02T11:43:45.213Z,1.70
2022-08-02T11:44:44.683Z,1.70
2022-08-02T11:45:44.473Z,1.70
2022-08-02T11:46:44.462Z,1.30
2022-08-02T11:47:44.443Z,1.50
2022-08-02T11:48:44.474Z,1.80
2022-08-02T11:49:44.471Z,1.50
2022-08-02T11:50:44.422Z,1.60
2022-08-02T11:51:44.404Z,1.30
2022-08-02T11:52:44.394Z,1.40
2022-08-02T11:53:44.424Z,1.60
2022-08-02T11:54:44.374Z,1.30
2022-08-02T11:55:44.352Z,1.40
2022-08-02T11:56:44.343Z,1.60
2022-08-02T11:58:02.953Z,1.30
2022-08-02T11:58:45.325Z,1.80
2022-08-02T11:59:44.294Z,1.70
2022-08-02T12:00:44.284Z,1.50
2022-08-02T12:01:45.747Z,1.70
2022-08-02T12:02:44.265Z,1.40
2022-08-02T12:03:44.288Z,1.50
2022-08-02T12:04:44.243Z,1.60
2022-08-02T12:06:05.042Z,1.50
2022-08-02T12:06:45.224Z,1.70
2022-08-02T12:07:46.221Z,1.50
2022-08-02T12:08:54.531Z,1.40
2022-08-02T12:09:45.166Z,1.30
2022-08-02T12:10:44.173Z,1.20
2022-08-02T12:11:44.144Z,1.30
2022-08-02T12:12:44.134Z,1.30
2022-08-02T12:13:44.135Z,1.20
2022-08-02T12:14:44.109Z,1.40
2022-08-02T12:15:44.102Z,1.20
2022-08-02T12:16:44.094Z,1.30
2022-08-02T12:17:47.534Z,1.10
2022-08-02T12:18:44.065Z,1.10
2022-08-02T12:19:44.054Z,1.10
2022-08-02T12:20:44.035Z,1.10
2022-08-02T12:21:44.015Z,1.40
2022-08-02T12:22:44.044Z,1.30
2022-08-02T12:24:01.039Z,1.10
2022-08-02T12:24:44.998Z,1.10
2022-08-02T12:25:43.969Z,1.10
2022-08-02T12:26:43.965Z,1.00
2022-08-02T12:27:43.946Z,1.00
2022-08-02T12:28:43.947Z,1.10
2022-08-02T12:29:55.924Z,1.20
2022-08-02T12:30:44.905Z,1.10
2022-08-02T12:31:55.864Z,1.00
2022-08-02T12:32:44.876Z,1.00
2022-08-02T12:33:43.877Z,1.20
2022-08-02T12:34:43.879Z,1.10
2022-08-02T12:35:43.844Z,1.20
2022-08-02T12:36:43.835Z,1.40
2022-08-02T12:37:43.825Z,0.90
2022-08-02T12:38:43.815Z,1.00
2022-08-02T12:39:43.786Z,1.00
2022-08-02T12:40:43.792Z,1.20
2022-08-02T12:41:55.127Z,1.20
2022-08-02T12:42:44.760Z,1.40
2022-08-02T12:43:43.745Z,1.40
2022-08-02T12:44:43.727Z,1.50
2022-08-02T12:45:48.345Z,1.30
2022-08-02T12:46:45.595Z,1.30
2022-08-02T12:47:43.684Z,1.20
2022-08-02T12:49:02.326Z,1.20
2022-08-02T12:49:44.722Z,1.10
2022-08-02T12:50:43.657Z,1.00
2022-08-02T12:51:56.611Z,1.00
2022-08-02T12:52:46.953Z,1.10
2022-08-02T12:53:43.626Z,1.00
2022-08-02T12:54:43.599Z,1.00
2022-08-02T12:55:59.747Z,1.50
2022-08-02T12:56:44.575Z,1.20
2022-08-02T12:57:43.557Z,1.50
2022-08-02T12:58:43.566Z,1.40
2022-08-02T12:59:43.537Z,1.30
2022-08-02T13:00:43.530Z,1.00
2022-08-02T13:01:43.601Z,1.00
2022-08-02T13:02:43.497Z,1.00
2022-08-02T13:04:10.850Z,1.00
2022-08-02T13:04:50.261Z,0.90
2022-08-02T13:05:57.223Z,1.30
2022-08-02T13:06:45.588Z,1.00
2022-08-02T13:07:43.436Z,1.10
2022-08-02T13:08:43.436Z,1.00
2022-08-02T13:09:43.405Z,1.10
2022-08-02T13:10:43.416Z,0.90
2022-08-02T13:11:43.989Z,1.10
2022-08-02T13:12:43.379Z,1.10
2022-08-02T13:13:43.366Z,1.10
2022-08-02T13:14:43.367Z,1.10
2022-08-02T13:15:49.578Z,0.90
2022-08-02T13:16:44.326Z,1.00
2022-08-02T13:17:43.319Z,1.10
2022-08-02T13:18:43.315Z,1.00